Aviation Digital Data Service (ADDS)

Output produced by TAFs form (0722 UTC 16 January 2018)
found at http://www.aviationweather.gov/adds/tafs/
 
KCWA 160630Z 1607/1706 36006KT P6SM SCT020 BKN040 
     TEMPO 1609/1611 -SHSN BKN020 
     FM161600 33007KT P6SM BKN050 
     FM162300 29006KT P6SM SCT250 AMD LTD TO CLD VIS AND WIND TIL 161200
       
KATW 160628Z 1606/1706 36008KT P6SM -SHSN SCT015 BKN035 
     TEMPO 1608/1610 4SM -SHSN BKN015 
     FM161100 35007KT P6SM -SHSN SCT015 BKN040 
     FM161600 33007KT P6SM BKN050 
     FM170100 29006KT P6SM SCT250
       
KGRB 160627Z 1606/1706 01010G15KT P6SM -SHSN SCT015 OVC035 
     TEMPO 1606/1610 3SM -SHSN BKN015 
     FM161100 35007KT P6SM -SHSN SCT015 BKN040 
     FM161800 32006KT P6SM BKN050 
     FM170200 29005KT P6SM SCT250
       
KMSN 160708Z 1607/1706 36008KT 5SM -SN OVC016 
     FM160900 33007KT P6SM OVC020 
     FM161400 34008KT P6SM BKN035 
     FM170400 30006KT P6SM SCT150
       
KMKE 160520Z 1606/1712 34007KT 4SM -SHSN OVC015 
     TEMPO 1606/1610 2SM -SN OVC015 
     FM161200 34009KT 3SM -SN BKN020 
     FM161600 34010KT P6SM VCSH BKN040 
     FM161800 34011KT P6SM BKN070